Time;durP1;ratioP1;P1;durP2;ratioP2;P2;SDS_P1;SDS_P2;PMS_P1;PMS_P2;Temp;Humidity;BMP_temperature;BMP_pressure;BME280_temperature;BME280_humidity;BME280_pressure;Samples;Min_cycle;Max_cycle;Signal;HPM_P1;HPM_P2
2021/10/10 00:02:16;;;;;;;13.57;11.70;;;10.70;80.00;;;;;;5042840;28;20226;-85
2021/10/10 00:04:41;;;;;;;14.67;12.37;;;10.60;80.80;;;;;;5015474;28;20194;-85
2021/10/10 00:07:07;;;;;;;13.30;11.97;;;10.50;81.20;;;;;;5011136;28;20191;-85
2021/10/10 00:09:33;;;;;;;12.80;11.37;;;10.50;81.50;;;;;;5029274;28;20226;-86
2021/10/10 00:11:59;;;;;;;12.40;11.17;;;10.60;81.60;;;;;;5028586;28;20308;-85
2021/10/10 00:14:24;;;;;;;14.50;12.17;;;10.60;80.70;;;;;;5015932;28;20197;-85
2021/10/10 00:16:50;;;;;;;13.07;11.87;;;10.50;81.00;;;;;;5010898;28;20198;-84
2021/10/10 00:19:16;;;;;;;12.60;11.30;;;10.50;80.90;;;;;;5013321;28;20193;-86
2021/10/10 00:21:41;;;;;;;11.97;10.70;;;10.30;81.10;;;;;;5014871;28;20261;-85
2021/10/10 00:24:07;;;;;;;13.50;11.83;;;10.40;81.60;;;;;;5008555;28;20224;-85
2021/10/10 00:26:33;;;;;;;12.90;11.57;;;10.40;81.50;;;;;;5026227;28;20225;-85
2021/10/10 00:28:59;;;;;;;12.10;11.00;;;10.40;82.00;;;;;;5010138;28;20666;-87
2021/10/10 00:31:24;;;;;;;12.67;10.73;;;10.50;81.70;;;;;;5008345;28;20227;-85
2021/10/10 00:33:50;;;;;;;14.20;12.07;;;10.40;80.50;;;;;;5009273;28;20203;-84
2021/10/10 00:36:16;;;;;;;13.37;10.83;;;10.50;80.40;;;;;;5011922;28;20226;-88
2021/10/10 00:38:43;;;;;;;13.10;11.43;;;10.40;81.00;;;;;;5014521;28;20211;-87
2021/10/10 00:41:08;;;;;;;13.77;12.03;;;10.50;80.70;;;;;;5030803;28;20707;-86
2021/10/10 00:43:34;;;;;;;14.33;11.57;;;10.40;80.30;;;;;;4996944;28;20300;-87
2021/10/10 00:46:00;;;;;;;13.00;11.20;;;10.20;80.90;;;;;;5010408;28;20218;-87
2021/10/10 00:48:25;;;;;;;17.10;11.73;;;10.20;81.80;;;;;;5014439;28;20221;-86
2021/10/10 00:50:52;;;;;;;13.20;11.83;;;10.10;81.50;;;;;;5014214;28;20772;-87
2021/10/10 00:53:18;;;;;;;14.50;11.30;;;9.90;82.30;;;;;;5013757;28;20203;-87
2021/10/10 00:55:53;;;;;;;12.77;10.90;;;10.00;82.60;;;;;;5009873;28;20566;-87
2021/10/10 00:58:24;;;;;;;12.60;11.07;;;10.10;82.20;;;;;;5013044;28;20240;-87
2021/10/10 01:00:54;;;;;;;13.23;11.50;;;10.00;81.20;;;;;;5014368;28;20281;-87
2021/10/10 01:03:21;;;;;;;11.63;10.43;;;9.90;82.30;;;;;;5026133;28;20555;-87
2021/10/10 01:05:47;;;;;;;12.30;11.10;;;9.90;81.90;;;;;;5012231;28;20225;-87
2021/10/10 01:08:17;;;;;;;12.27;11.03;;;9.80;81.60;;;;;;5028759;28;20193;-87
2021/10/10 01:10:47;;;;;;;12.10;10.87;;;9.80;82.50;;;;;;5012361;28;20232;-86
2021/10/10 01:13:14;;;;;;;11.93;10.70;;;9.70;82.30;;;;;;5006510;28;20213;-87
2021/10/10 01:15:40;;;;;;;11.53;10.43;;;9.60;82.30;;;;;;5011936;28;20198;-86
2021/10/10 01:18:06;;;;;;;15.43;11.20;;;9.70;83.00;;;;;;5011566;28;20205;-86
2021/10/10 01:20:46;;;;;;;11.60;10.40;;;9.80;82.40;;;;;;5010404;28;20194;-86
2021/10/10 01:23:12;;;;;;;11.33;10.23;;;10.00;82.70;;;;;;5010433;28;20228;-87
2021/10/10 01:25:37;;;;;;;10.80;9.70;;;10.10;81.80;;;;;;5012600;28;20295;-86
2021/10/10 01:28:04;;;;;;;11.57;10.47;;;10.20;81.10;;;;;;5027912;28;20189;-87
2021/10/10 01:30:30;;;;;;;12.53;11.13;;;10.30;80.10;;;;;;5014048;28;20245;-87
2021/10/10 01:32:56;;;;;;;12.40;10.83;;;10.20;79.50;;;;;;5032284;28;20229;-87
2021/10/10 01:35:23;;;;;;;10.93;9.87;;;10.20;80.10;;;;;;5013347;28;20721;-87
2021/10/10 01:37:48;;;;;;;10.93;9.93;;;10.30;80.70;;;;;;5010539;28;20198;-87
2021/10/10 01:40:15;;;;;;;11.87;10.67;;;10.40;80.40;;;;;;4998758;28;20714;-87
2021/10/10 01:42:40;;;;;;;12.13;10.50;;;10.40;79.20;;;;;;5012570;28;20211;-87
2021/10/10 01:45:18;;;;;;;11.87;10.83;;;10.30;78.90;;;;;;5011348;28;20200;-87
2021/10/10 01:47:44;;;;;;;11.87;10.57;;;10.30;79.10;;;;;;5012245;28;20680;-87
2021/10/10 01:50:11;;;;;;;11.63;10.53;;;10.40;79.40;;;;;;5012063;28;20187;-87
2021/10/10 01:52:40;;;;;;;13.77;10.33;;;10.40;78.60;;;;;;5014554;28;20206;-87
2021/10/10 01:55:06;;;;;;;11.33;10.23;;;10.40;78.60;;;;;;5012329;28;20199;-87
2021/10/10 01:57:32;;;;;;;10.93;9.87;;;10.30;78.90;;;;;;5012692;28;20218;-89
2021/10/10 01:59:57;;;;;;;10.67;9.63;;;10.40;79.00;;;;;;5012471;28;20647;-87
2021/10/10 02:02:23;;;;;;;11.47;10.23;;;10.30;79.10;;;;;;5007735;28;20213;-87
2021/10/10 02:04:49;;;;;;;12.10;10.20;;;10.20;78.40;;;;;;5011211;28;20278;-87
2021/10/10 02:07:14;;;;;;;10.73;9.63;;;10.00;79.00;;;;;;5011218;28;20410;-87
2021/10/10 02:09:42;;;;;;;11.73;10.57;;;9.80;79.80;;;;;;5009980;28;20225;-87
2021/10/10 02:12:08;;;;;;;12.87;10.47;;;9.70;80.40;;;;;;5025549;28;20214;-87
2021/10/10 02:14:36;;;;;;;11.43;10.33;;;9.60;81.30;;;;;;5029391;28;20193;-87
2021/10/10 02:17:03;;;;;;;11.67;10.20;;;9.60;80.90;;;;;;5023864;28;20205;-87
2021/10/10 02:19:28;;;;;;;11.80;10.57;;;9.60;80.90;;;;;;5008278;28;20189;-87
2021/10/10 02:21:54;;;;;;;11.50;10.30;;;9.60;80.70;;;;;;5009292;28;20555;-87
2021/10/10 02:24:20;;;;;;;10.87;9.37;;;9.70;81.50;;;;;;5009265;28;20211;-87
2021/10/10 02:26:46;;;;;;;11.47;10.37;;;9.80;81.30;;;;;;5008355;28;20630;-87
2021/10/10 02:29:11;;;;;;;13.10;10.73;;;9.80;79.90;;;;;;5006844;28;20198;-87
2021/10/10 02:31:42;;;;;;;12.83;11.10;;;9.70;79.10;;;;;;4997975;28;20232;-87
2021/10/10 02:34:12;;;;;;;10.17;9.17;;;9.60;79.70;;;;;;5008044;28;20208;-87
2021/10/10 02:36:38;;;;;;;11.07;9.87;;;9.50;81.30;;;;;;5010832;28;20293;-87
2021/10/10 02:39:04;;;;;;;12.10;10.40;;;9.50;81.90;;;;;;5045662;28;20229;-87
2021/10/10 02:41:30;;;;;;;12.23;9.80;;;9.70;81.30;;;;;;5031574;28;20215;-83
2021/10/10 02:43:56;;;;;;;13.10;10.80;;;9.70;80.20;;;;;;5026552;28;20214;-83
2021/10/10 02:46:21;;;;;;;11.07;9.57;;;9.70;79.80;;;;;;5019504;28;20201;-85
2021/10/10 02:48:47;;;;;;;12.00;9.60;;;9.70;80.80;;;;;;5020182;28;20194;-85
2021/10/10 02:51:13;;;;;;;10.87;9.77;;;9.70;80.00;;;;;;5013873;28;20217;-85
2021/10/10 02:53:39;;;;;;;12.20;9.80;;;9.70;80.50;;;;;;5021908;28;20206;-86
2021/10/10 02:56:05;;;;;;;12.70;10.43;;;9.60;79.60;;;;;;5019718;28;20212;-85
2021/10/10 02:58:31;;;;;;;11.93;10.03;;;9.60;79.30;;;;;;5016129;28;20197;-86
2021/10/10 03:00:57;;;;;;;13.27;10.07;;;9.50;79.60;;;;;;5008668;28;20620;-85
2021/10/10 03:03:23;;;;;;;12.67;10.47;;;9.50;79.60;;;;;;5036848;28;20312;-84
2021/10/10 03:05:48;;;;;;;12.63;10.13;;;9.30;80.10;;;;;;5028849;28;20185;-83
2021/10/10 03:08:14;;;;;;;11.37;10.27;;;9.10;80.80;;;;;;5040871;28;20210;-84
2021/10/10 03:10:40;;;;;;;12.10;10.33;;;9.00;81.20;;;;;;5020854;28;20190;-85
2021/10/10 03:13:06;;;;;;;13.93;10.30;;;9.00;81.40;;;;;;5011526;28;20314;-86
2021/10/10 03:15:33;;;;;;;12.40;10.13;;;9.00;82.90;;;;;;5014372;28;20213;-85
2021/10/10 03:17:58;;;;;;;12.60;10.73;;;9.00;81.70;;;;;;5008606;28;20194;-85
2021/10/10 03:20:24;;;;;;;11.50;10.30;;;8.90;81.80;;;;;;5005590;28;20835;-86
2021/10/10 03:22:50;;;;;;;12.07;10.37;;;8.70;81.90;;;;;;5008709;28;20224;-84
2021/10/10 03:25:16;;;;;;;15.03;9.70;;;8.50;83.00;;;;;;5025510;28;20573;-85
2021/10/10 03:27:41;;;;;;;11.60;10.40;;;8.30;84.30;;;;;;5009241;28;20193;-84
2021/10/10 03:30:07;;;;;;;11.00;9.63;;;8.30;84.40;;;;;;5009529;28;20194;-86
2021/10/10 03:32:33;;;;;;;11.43;10.23;;;8.40;84.10;;;;;;5009076;28;20454;-86
2021/10/10 03:34:59;;;;;;;11.10;9.90;;;8.40;83.80;;;;;;5010891;28;20834;-86
2021/10/10 03:37:24;;;;;;;12.27;10.47;;;8.20;84.30;;;;;;5023971;28;20582;-86
2021/10/10 03:39:50;;;;;;;11.53;10.40;;;8.00;84.30;;;;;;5024713;28;20189;-85
2021/10/10 03:42:16;;;;;;;11.70;10.50;;;8.00;84.80;;;;;;5025204;28;20213;-85
2021/10/10 03:44:41;;;;;;;10.80;9.67;;;8.00;84.60;;;;;;5009913;28;20217;-86
2021/10/10 03:47:08;;;;;;;12.63;10.10;;;8.10;85.20;;;;;;5025478;28;20530;-86
2021/10/10 03:49:33;;;;;;;11.83;10.30;;;8.20;84.30;;;;;;5006906;28;20185;-86
2021/10/10 03:52:00;;;;;;;10.73;9.60;;;8.20;83.70;;;;;;4998418;28;20214;-86
2021/10/10 03:56:53;;;;;;;12.00;10.33;;;8.20;84.50;;;;;;5025753;28;20193;-85
2021/10/10 03:59:22;;;;;;;12.17;10.10;;;8.10;84.00;;;;;;5012491;28;20187;-85
2021/10/10 04:01:47;;;;;;;15.03;10.67;;;8.00;84.10;;;;;;5013771;28;20216;-85
2021/10/10 04:04:13;;;;;;;13.23;10.43;;;7.80;84.70;;;;;;5014928;28;20213;-85
2021/10/10 04:06:39;;;;;;;14.23;9.73;;;7.80;84.80;;;;;;5012598;28;20254;-85
2021/10/10 04:09:04;;;;;;;12.47;10.53;;;7.70;85.70;;;;;;5020230;28;20202;-84
2021/10/10 04:11:30;;;;;;;15.20;10.70;;;7.70;86.10;;;;;;5022784;28;20748;-85
2021/10/10 04:13:56;;;;;;;11.83;9.53;;;7.80;85.10;;;;;;5023687;28;20217;-86
2021/10/10 04:16:21;;;;;;;11.80;9.80;;;7.80;85.00;;;;;;5020001;28;20193;-85
2021/10/10 04:18:47;;;;;;;11.37;9.63;;;7.90;84.50;;;;;;5019259;28;20219;-85
2021/10/10 04:21:13;;;;;;;12.73;9.90;;;7.90;84.90;;;;;;5008276;28;20300;-85
2021/10/10 04:23:38;;;;;;;12.67;10.37;;;7.90;84.60;;;;;;5023533;28;20209;-84
2021/10/10 04:26:04;;;;;;;12.73;9.70;;;7.90;84.40;;;;;;5035493;28;20264;-84
2021/10/10 04:28:30;;;;;;;11.27;9.77;;;7.90;84.30;;;;;;5035960;28;20198;-84
2021/10/10 04:30:56;;;;;;;10.53;9.23;;;7.90;84.00;;;;;;5030526;28;20632;-86
2021/10/10 04:33:21;;;;;;;12.30;9.77;;;7.90;84.70;;;;;;5017493;28;20240;-86
2021/10/10 04:35:48;;;;;;;11.03;9.73;;;8.00;84.50;;;;;;5018508;28;20212;-84
2021/10/10 04:38:15;;;;;;;12.00;9.00;;;8.00;83.80;;;;;;5018825;28;20197;-85
2021/10/10 04:40:42;;;;;;;10.50;9.33;;;8.00;83.30;;;;;;5040100;28;20304;-87
2021/10/10 04:43:08;;;;;;;10.70;9.60;;;8.00;83.50;;;;;;5018658;28;20217;-85
2021/10/10 04:45:35;;;;;;;11.07;9.57;;;7.90;83.40;;;;;;5035577;28;20192;-85
2021/10/10 04:48:00;;;;;;;10.63;9.10;;;7.80;84.00;;;;;;5018348;28;20192;-86
2021/10/10 04:50:26;;;;;;;11.13;8.50;;;7.80;84.00;;;;;;5015252;28;20217;-85
2021/10/10 04:52:52;;;;;;;10.80;9.20;;;7.70;84.10;;;;;;5015091;28;20225;-85
2021/10/10 04:55:18;;;;;;;11.17;9.53;;;7.80;84.40;;;;;;5016541;28;20221;-85
2021/10/10 04:57:43;;;;;;;14.20;9.27;;;7.80;84.20;;;;;;5015754;28;20308;-84
2021/10/10 05:00:10;;;;;;;12.33;9.67;;;7.90;84.80;;;;;;5015516;28;20677;-83
2021/10/10 05:02:36;;;;;;;12.57;8.97;;;7.90;83.40;;;;;;5016911;28;20304;-86
2021/10/10 05:05:02;;;;;;;11.60;9.03;;;7.70;84.60;;;;;;5016738;28;20208;-85
2021/10/10 05:07:29;;;;;;;11.77;9.80;;;7.80;84.30;;;;;;5013729;28;20189;-86
2021/10/10 05:09:55;;;;;;;12.97;9.83;;;7.70;84.30;;;;;;5015077;28;20186;-86
2021/10/10 05:12:21;;;;;;;13.87;9.77;;;7.70;84.00;;;;;;5013589;28;20220;-86
2021/10/10 05:14:46;;;;;;;11.83;9.10;;;7.70;83.80;;;;;;5016415;28;20367;-86
2021/10/10 05:17:12;;;;;;;10.53;8.90;;;7.50;84.30;;;;;;5015941;28;20272;-86
2021/10/10 05:19:38;;;;;;;12.90;9.53;;;7.50;84.50;;;;;;5015632;28;20185;-86
2021/10/10 05:22:05;;;;;;;11.07;9.03;;;7.60;84.60;;;;;;5015333;28;20238;-84
2021/10/10 05:24:31;;;;;;;9.40;8.40;;;7.50;84.80;;;;;;5017950;28;20603;-85
2021/10/10 05:26:59;;;;;;;10.87;8.80;;;7.50;84.30;;;;;;5019145;28;20221;-86
2021/10/10 05:29:24;;;;;;;11.77;9.33;;;7.40;84.50;;;;;;5017936;28;20181;-86
2021/10/10 05:31:50;;;;;;;11.93;9.03;;;7.30;85.10;;;;;;5016392;28;20720;-86
2021/10/10 05:34:16;;;;;;;11.67;9.43;;;7.30;85.10;;;;;;5018353;28;20283;-86
2021/10/10 05:36:41;;;;;;;11.10;9.00;;;7.30;85.40;;;;;;5018282;28;20186;-85
2021/10/10 05:39:07;;;;;;;11.37;8.93;;;7.30;85.50;;;;;;5017046;28;20709;-86
2021/10/10 05:41:33;;;;;;;13.73;9.87;;;7.30;86.10;;;;;;5013061;28;20301;-86
2021/10/10 05:44:00;;;;;;;11.90;9.63;;;7.40;85.40;;;;;;5016456;28;20301;-85
2021/10/10 05:46:25;;;;;;;11.70;9.70;;;7.40;85.40;;;;;;5023743;28;20229;-86
2021/10/10 05:48:51;;;;;;;12.43;9.80;;;7.40;84.90;;;;;;5017056;28;20201;-87
2021/10/10 05:51:17;;;;;;;11.13;9.10;;;7.40;85.30;;;;;;5030168;28;20256;-86
2021/10/10 05:53:42;;;;;;;11.13;9.77;;;7.40;84.60;;;;;;5016186;28;20190;-85
2021/10/10 05:56:08;;;;;;;12.90;10.07;;;7.40;84.90;;;;;;5014338;28;20793;-86
2021/10/10 05:58:40;;;;;;;12.50;10.17;;;7.40;85.10;;;;;;5017377;28;20173;-84
2021/10/10 06:01:06;;;;;;;10.97;9.83;;;7.40;85.00;;;;;;5016014;28;20182;-84
2021/10/10 06:03:31;;;;;;;10.90;9.80;;;7.50;85.00;;;;;;5014132;28;20937;-83
2021/10/10 06:05:57;;;;;;;13.33;10.10;;;7.60;84.90;;;;;;5015332;28;20198;-84
2021/10/10 06:08:23;;;;;;;13.07;10.40;;;7.80;84.20;;;;;;5025845;28;20224;-85
2021/10/10 06:10:48;;;;;;;11.13;9.90;;;7.90;83.70;;;;;;5013205;28;20265;-84
2021/10/10 06:13:14;;;;;;;13.47;10.20;;;7.80;82.80;;;;;;5015577;28;20217;-85
2021/10/10 06:15:40;;;;;;;10.10;9.10;;;7.90;83.00;;;;;;5031640;28;20277;-85
2021/10/10 06:18:09;;;;;;;11.37;9.90;;;7.90;82.90;;;;;;5016063;28;20194;-86
2021/10/10 06:20:36;;;;;;;10.83;9.70;;;7.90;83.00;;;;;;5016156;28;20194;-84
2021/10/10 06:23:02;;;;;;;13.00;9.73;;;7.90;82.10;;;;;;5016084;28;20217;-84
2021/10/10 06:25:27;;;;;;;14.23;10.80;;;7.80;82.20;;;;;;5002838;28;20201;-85
2021/10/10 06:27:53;;;;;;;11.23;9.87;;;7.90;82.40;;;;;;5012753;28;20209;-86
2021/10/10 06:30:19;;;;;;;11.80;10.60;;;7.90;81.80;;;;;;5015006;28;20265;-87
2021/10/10 06:32:45;;;;;;;12.00;10.80;;;7.80;82.40;;;;;;5015547;28;20206;-85
2021/10/10 06:35:10;;;;;;;12.20;10.67;;;7.80;83.80;;;;;;5020169;28;20197;-85
2021/10/10 06:37:36;;;;;;;11.97;10.17;;;7.90;82.50;;;;;;5023257;28;20273;-86
2021/10/10 06:40:03;;;;;;;13.10;11.40;;;8.00;83.00;;;;;;5018943;28;20186;-85
2021/10/10 06:42:29;;;;;;;13.77;11.13;;;8.10;82.40;;;;;;5019551;28;20343;-86
2021/10/10 06:44:54;;;;;;;11.83;10.63;;;8.00;80.90;;;;;;5015563;28;20224;-86
2021/10/10 06:47:20;;;;;;;12.97;10.30;;;8.00;82.70;;;;;;5014796;28;20195;-86
2021/10/10 06:49:46;;;;;;;11.93;10.73;;;8.00;83.20;;;;;;5004868;28;20202;-85
2021/10/10 06:52:13;;;;;;;12.57;11.30;;;8.10;82.50;;;;;;5012916;28;20235;-86
2021/10/10 06:54:40;;;;;;;12.63;11.33;;;8.20;81.80;;;;;;5010072;28;20200;-86
2021/10/10 06:57:05;;;;;;;15.47;11.73;;;8.00;81.20;;;;;;5012758;28;20205;-84
2021/10/10 06:59:31;;;;;;;12.47;11.27;;;8.00;82.30;;;;;;5011993;28;20197;-86
2021/10/10 07:01:57;;;;;;;12.23;10.70;;;7.80;83.10;;;;;;5017450;28;20236;-85
2021/10/10 07:04:23;;;;;;;13.50;11.10;;;8.00;83.00;;;;;;5011590;28;20210;-86
2021/10/10 07:06:48;;;;;;;14.17;11.20;;;7.90;82.60;;;;;;5016985;28;20193;-85
2021/10/10 07:09:14;;;;;;;12.90;11.70;;;8.00;82.70;;;;;;5018613;28;20193;-86
2021/10/10 07:11:40;;;;;;;12.37;11.10;;;8.00;82.70;;;;;;5021160;28;20220;-84
2021/10/10 07:14:06;;;;;;;13.97;10.90;;;8.10;82.30;;;;;;5013980;28;20403;-85
2021/10/10 07:16:34;;;;;;;12.30;10.90;;;8.10;82.20;;;;;;5013723;28;20883;-85
2021/10/10 07:19:01;;;;;;;15.27;11.37;;;8.10;82.40;;;;;;5007890;28;20193;-86
2021/10/10 07:21:42;;;;;;;12.93;11.03;;;7.90;83.30;;;;;;5012376;28;20276;-85
2021/10/10 07:26:34;;;;;;;13.10;10.70;;;8.00;83.30;;;;;;5021976;28;20455;-86
2021/10/10 07:29:00;;;;;;;13.63;12.20;;;8.10;83.10;;;;;;5010820;28;20189;-86
2021/10/10 07:31:25;;;;;;;12.10;10.80;;;8.10;83.60;;;;;;5016853;28;20268;-87
2021/10/10 07:33:51;;;;;;;16.00;11.67;;;8.10;83.40;;;;;;5008021;28;20207;-86
2021/10/10 07:36:17;;;;;;;12.77;11.33;;;8.20;83.50;;;;;;5010573;28;20222;-85
2021/10/10 07:38:43;;;;;;;15.60;12.27;;;8.30;83.70;;;;;;5011460;28;20201;-86
2021/10/10 07:41:09;;;;;;;14.43;12.03;;;8.30;82.80;;;;;;5010520;28;20201;-85
2021/10/10 07:43:35;;;;;;;12.93;11.30;;;8.40;82.60;;;;;;5028582;28;20232;-86
2021/10/10 07:46:36;;;;;;;13.30;11.27;;;8.50;82.60;;;;;;5013217;28;20200;-85
2021/10/10 07:48:52;;;;;;;12.47;10.67;;;8.60;81.80;;;;;;5008473;28;20206;-85
2021/10/10 07:51:22;;;;;;;13.47;12.03;;;8.60;83.00;;;;;;5005877;28;20212;-85
2021/10/10 07:53:48;;;;;;;12.57;11.27;;;8.70;82.50;;;;;;4998732;28;20775;-85
2021/10/10 07:56:13;;;;;;;16.13;12.60;;;8.80;81.70;;;;;;5011866;28;20186;-85
2021/10/10 07:58:39;;;;;;;14.80;11.57;;;8.80;82.20;;;;;;5012847;28;20194;-84
2021/10/10 08:01:05;;;;;;;15.50;11.97;;;8.90;81.10;;;;;;5014948;28;20575;-85
2021/10/10 08:03:30;;;;;;;13.07;11.57;;;9.10;81.30;;;;;;5013336;28;20222;-85
2021/10/10 08:05:56;;;;;;;14.50;13.00;;;9.00;80.50;;;;;;5009546;28;20193;-85
2021/10/10 08:08:22;;;;;;;12.27;10.97;;;9.10;80.60;;;;;;5010579;28;20202;-84
2021/10/10 08:10:48;;;;;;;13.37;11.87;;;9.20;82.00;;;;;;5011879;28;20188;-85
2021/10/10 08:13:14;;;;;;;11.60;10.20;;;9.30;80.30;;;;;;5026838;28;20285;-85
2021/10/10 08:15:40;;;;;;;12.40;11.00;;;9.50;80.30;;;;;;5008946;28;20283;-84
2021/10/10 08:18:05;;;;;;;12.77;11.47;;;9.50;79.70;;;;;;5007333;28;20259;-84
2021/10/10 08:20:31;;;;;;;13.93;12.43;;;9.60;79.60;;;;;;5007893;28;20209;-85
2021/10/10 08:22:58;;;;;;;14.50;12.57;;;9.60;79.20;;;;;;5012984;28;20288;-86
2021/10/10 08:25:24;;;;;;;14.27;12.17;;;9.60;79.60;;;;;;5013654;28;20193;-86
2021/10/10 08:27:49;;;;;;;19.97;12.60;;;9.70;79.60;;;;;;5011236;28;20205;-86
2021/10/10 08:30:17;;;;;;;13.83;11.83;;;9.70;79.00;;;;;;5009822;28;20650;-85
2021/10/10 08:32:45;;;;;;;14.03;11.83;;;9.80;79.10;;;;;;5012244;28;20209;-85
2021/10/10 08:35:12;;;;;;;13.70;11.43;;;9.80;78.50;;;;;;5012207;28;20198;-84
2021/10/10 08:37:38;;;;;;;16.97;12.40;;;9.90;78.40;;;;;;5011695;28;20196;-85
2021/10/10 08:40:04;;;;;;;13.63;11.40;;;9.90;79.00;;;;;;5009918;28;20661;-85
2021/10/10 08:42:34;;;;;;;14.07;11.60;;;10.00;79.20;;;;;;5012400;28;20753;-85
2021/10/10 08:45:09;;;;;;;13.00;11.70;;;10.00;78.00;;;;;;5009870;28;20204;-85
2021/10/10 08:47:42;;;;;;;18.37;11.17;;;10.00;78.10;;;;;;5015814;28;20255;-86
2021/10/10 08:50:23;;;;;;;13.07;11.67;;;10.20;78.60;;;;;;5012620;28;20894;-85
2021/10/10 08:52:52;;;;;;;15.23;11.93;;;10.20;77.80;;;;;;5030464;28;20182;-83
2021/10/10 08:55:18;;;;;;;16.13;11.63;;;10.30;77.40;;;;;;5030551;28;20217;-85
2021/10/10 08:57:45;;;;;;;12.40;11.10;;;10.40;77.30;;;;;;5020025;28;20321;-86
2021/10/10 09:00:17;;;;;;;14.00;11.47;;;10.50;77.20;;;;;;5010828;28;20244;-85
2021/10/10 09:02:46;;;;;;;12.97;11.13;;;10.60;77.60;;;;;;5010404;28;20260;-85
2021/10/10 09:05:13;;;;;;;12.47;11.17;;;10.60;77.30;;;;;;5011490;28;20272;-86
2021/10/10 09:07:39;;;;;;;13.37;11.17;;;10.80;76.50;;;;;;5009901;28;20194;-86
2021/10/10 09:10:27;;;;;;;13.57;11.53;;;10.90;77.30;;;;;;5015860;28;20334;-86
2021/10/10 09:13:09;;;;;;;14.87;11.63;;;11.10;76.00;;;;;;5013321;28;20217;-85
2021/10/10 09:15:37;;;;;;;12.47;11.17;;;11.20;75.70;;;;;;5019047;28;20193;-85
2021/10/10 09:18:04;;;;;;;12.83;11.37;;;11.40;75.20;;;;;;4999884;28;20799;-86
2021/10/10 09:20:31;;;;;;;12.57;11.30;;;11.50;74.50;;;;;;5014885;28;20198;-86
2021/10/10 09:22:58;;;;;;;13.17;11.87;;;11.80;74.40;;;;;;5013038;28;20258;-86
2021/10/10 09:25:24;;;;;;;12.97;11.67;;;12.00;73.20;;;;;;5027301;28;20610;-85
2021/10/10 09:27:50;;;;;;;12.20;11.10;;;12.10;72.40;;;;;;5013326;28;20184;-85
2021/10/10 09:30:19;;;;;;;16.23;12.27;;;12.30;71.90;;;;;;5012476;28;20228;-86
2021/10/10 09:32:45;;;;;;;13.53;10.93;;;12.40;70.50;;;;;;4992225;28;20685;-86
2021/10/10 09:35:30;;;;;;;13.13;11.80;;;12.50;69.70;;;;;;5010726;28;20202;-85
2021/10/10 09:38:05;;;;;;;13.57;11.87;;;12.60;68.90;;;;;;5026603;28;20207;-85
2021/10/10 09:40:36;;;;;;;14.00;11.50;;;12.90;69.40;;;;;;5026833;28;20203;-86
2021/10/10 09:43:03;;;;;;;13.50;12.30;;;13.00;68.70;;;;;;5027810;28;20220;-85
2021/10/10 09:48:07;;;;;;;13.93;11.20;;;13.50;67.20;;;;;;5027834;28;20197;-85
2021/10/10 09:50:37;;;;;;;13.10;11.80;;;13.60;65.20;;;;;;5020074;28;21921;-86
2021/10/10 09:53:10;;;;;;;13.53;11.27;;;13.80;64.20;;;;;;5011539;28;20215;-86
2021/10/10 09:55:38;;;;;;;11.87;10.60;;;13.70;63.50;;;;;;5006918;28;20175;-86
2021/10/10 09:58:04;;;;;;;13.23;11.83;;;13.80;63.90;;;;;;5009269;28;20196;-86
2021/10/10 10:00:32;;;;;;;12.27;11.07;;;14.10;63.40;;;;;;5021572;28;20196;-87
2021/10/10 10:03:08;;;;;;;12.17;10.97;;;14.10;63.20;;;;;;5004758;28;20241;-87
2021/10/10 10:05:34;;;;;;;11.90;10.70;;;13.90;63.50;;;;;;5023886;28;20201;-86
2021/10/10 10:08:00;;;;;;;12.77;11.27;;;14.10;63.50;;;;;;5026949;28;20194;-84
2021/10/10 10:10:29;;;;;;;12.80;11.07;;;14.10;62.10;;;;;;5031191;28;20208;-84
2021/10/10 10:12:56;;;;;;;12.57;11.27;;;14.00;62.70;;;;;;5030057;28;20230;-85
2021/10/10 10:15:28;;;;;;;12.20;11.00;;;14.30;61.70;;;;;;5013766;28;20610;-86
2021/10/10 10:17:55;;;;;;;13.33;11.10;;;14.60;60.60;;;;;;5009735;28;20251;-85
2021/10/10 10:20:23;;;;;;;11.57;10.33;;;14.50;59.50;;;;;;5001411;28;20194;-85
2021/10/10 10:22:51;;;;;;;12.83;11.23;;;14.70;59.40;;;;;;5009020;28;20224;-85
2021/10/10 10:25:17;;;;;;;14.43;11.10;;;15.00;58.40;;;;;;5008559;28;20298;-85
2021/10/10 10:27:43;;;;;;;14.83;10.73;;;15.30;57.30;;;;;;5004442;28;20229;-86
2021/10/10 10:30:09;;;;;;;11.17;10.00;;;15.40;56.20;;;;;;5011962;28;20290;-85
2021/10/10 10:32:36;;;;;;;14.63;11.33;;;15.60;55.20;;;;;;5009821;28;20213;-85
2021/10/10 10:35:16;;;;;;;13.90;10.53;;;15.80;55.40;;;;;;5016414;28;20201;-85
2021/10/10 10:37:42;;;;;;;11.47;10.23;;;15.80;54.40;;;;;;5013731;28;20192;-86
2021/10/10 10:40:16;;;;;;;13.20;10.43;;;15.80;54.20;;;;;;5010397;28;20236;-86
2021/10/10 10:42:44;;;;;;;12.23;10.53;;;16.00;52.80;;;;;;5013951;28;20525;-85
2021/10/10 10:45:23;;;;;;;12.40;10.60;;;16.10;54.20;;;;;;5009892;28;20189;-85
2021/10/10 10:47:54;;;;;;;12.93;9.60;;;16.50;54.00;;;;;;5009810;28;20191;-85
2021/10/10 10:50:25;;;;;;;12.57;10.70;;;16.60;52.10;;;;;;5009817;28;20204;-85
2021/10/10 10:53:00;;;;;;;14.27;10.57;;;16.70;50.50;;;;;;5011844;28;20624;-86
2021/10/10 10:55:34;;;;;;;12.00;10.87;;;16.70;51.60;;;;;;5014937;28;20199;-85
2021/10/10 10:58:09;;;;;;;12.80;9.70;;;16.60;52.50;;;;;;5015023;28;20661;-85
2021/10/10 11:01:05;;;;;;;10.70;9.60;;;16.70;52.30;;;;;;5021289;28;20169;-86
2021/10/10 11:03:33;;;;;;;13.30;10.13;;;16.80;51.90;;;;;;5022026;28;20249;-86
2021/10/10 11:06:17;;;;;;;12.97;10.30;;;16.40;51.90;;;;;;5024034;28;20187;-84
2021/10/10 11:08:44;;;;;;;11.57;9.30;;;16.80;51.50;;;;;;5012587;28;20219;-86
2021/10/10 11:11:16;;;;;;;11.87;9.93;;;16.90;52.70;;;;;;5012634;28;20277;-87
2021/10/10 11:13:48;;;;;;;12.13;10.30;;;17.10;52.60;;;;;;5016333;28;20287;-86
2021/10/10 11:16:19;;;;;;;12.80;10.63;;;17.10;50.10;;;;;;5019670;28;20199;-86
2021/10/10 11:18:49;;;;;;;11.97;9.57;;;16.90;50.90;;;;;;5015347;28;20199;-86
2021/10/10 11:21:18;;;;;;;11.73;9.83;;;17.00;50.60;;;;;;5014710;28;20307;-86
2021/10/10 11:23:55;;;;;;;13.27;10.60;;;17.20;50.10;;;;;;5016607;28;20796;-86
2021/10/10 11:26:23;;;;;;;10.97;9.80;;;17.30;51.50;;;;;;5014473;28;20689;-86
2021/10/10 11:28:53;;;;;;;11.43;10.13;;;17.70;49.70;;;;;;5014079;28;20202;-86
2021/10/10 11:31:30;;;;;;;9.93;9.03;;;17.90;48.40;;;;;;5014645;28;20207;-87
2021/10/10 11:33:56;;;;;;;12.50;9.93;;;18.40;47.80;;;;;;5016168;28;20203;-87
2021/10/10 11:36:34;;;;;;;10.23;9.20;;;18.60;47.10;;;;;;5013235;28;20295;-87
2021/10/10 11:39:00;;;;;;;11.47;10.27;;;18.20;47.50;;;;;;5016865;28;20215;-85
2021/10/10 11:41:27;;;;;;;12.67;9.57;;;18.20;47.00;;;;;;5019345;28;20221;-86
2021/10/10 11:44:01;;;;;;;12.10;9.97;;;18.30;47.80;;;;;;5020486;28;20252;-87
2021/10/10 11:46:38;;;;;;;9.85;8.82;;;18.60;46.90;;;;;;5030320;28;20197;-85
2021/10/10 11:49:56;;;;;;;10.80;9.30;;;18.80;45.30;;;;;;5027372;28;20191;-86
2021/10/10 11:52:36;;;;;;;9.95;8.82;;;18.80;44.10;;;;;;5017700;28;20240;-87
2021/10/10 11:57:46;;;;;;;11.10;9.93;;;18.80;45.20;;;;;;5016503;28;20195;-86
2021/10/10 12:00:15;;;;;;;11.60;9.50;;;19.10;42.40;;;;;;5015543;28;20187;-87
2021/10/10 12:02:44;;;;;;;11.73;9.77;;;19.20;42.50;;;;;;5016524;28;20220;-86
2021/10/10 12:05:19;;;;;;;10.52;9.63;;;19.40;42.20;;;;;;5016498;28;20255;-87
2021/10/10 12:07:46;;;;;;;12.27;9.75;;;19.30;42.10;;;;;;5016691;28;20196;-87
2021/10/10 12:10:20;;;;;;;11.45;9.52;;;19.10;42.80;;;;;;5015364;28;20194;-86
2021/10/10 12:12:53;;;;;;;10.90;9.90;;;19.00;42.00;;;;;;5018615;28;20251;-87
2021/10/10 12:15:22;;;;;;;11.45;10.23;;;19.30;42.60;;;;;;5005770;28;20188;-88
2021/10/10 12:17:50;;;;;;;10.63;9.27;;;19.50;41.00;;;;;;5017405;28;20194;-88
2021/10/10 12:20:16;;;;;;;11.05;9.77;;;19.70;41.90;;;;;;5013950;28;20191;-86
2021/10/10 12:22:52;;;;;;;10.60;9.50;;;19.50;41.80;;;;;;5013306;28;20296;-88
2021/10/10 12:25:21;;;;;;;10.13;9.23;;;19.50;41.80;;;;;;5022063;28;20200;-86
2021/10/10 12:28:01;;;;;;;11.10;9.95;;;19.90;40.90;;;;;;5031458;28;20308;-86
2021/10/10 12:30:33;;;;;;;12.35;10.57;;;20.00;39.30;;;;;;5018819;28;20211;-85
2021/10/10 12:33:19;;;;;;;9.68;8.80;;;20.00;40.50;;;;;;5020473;28;20264;-86
2021/10/10 12:36:00;;;;;;;10.52;9.55;;;20.30;39.90;;;;;;5016704;28;20765;-87
2021/10/10 12:38:32;;;;;;;11.25;9.70;;;20.30;40.00;;;;;;5015731;28;20189;-87
2021/10/10 12:41:00;;;;;;;12.55;11.23;;;20.20;39.80;;;;;;5009306;28;20197;-86
2021/10/10 12:43:39;;;;;;;10.68;9.57;;;20.40;39.50;;;;;;5015896;28;20218;-88
2021/10/10 12:46:05;;;;;;;10.48;9.48;;;20.10;40.20;;;;;;5015660;28;20173;-87
2021/10/10 12:48:31;;;;;;;11.27;9.57;;;19.90;40.70;;;;;;5021945;28;20185;-88
2021/10/10 12:50:57;;;;;;;10.57;8.63;;;20.10;39.80;;;;;;5026009;28;20190;-87